Time;durP1;ratioP1;P1;durP2;ratioP2;P2;SDS_P1;SDS_P2;PMS_P1;PMS_P2;Temp;Humidity;BMP_temperature;BMP_pressure;BME280_temperature;BME280_humidity;BME280_pressure;Samples;Min_cycle;Max_cycle;Signal;HPM_P1;HPM_P2
2022/05/27 00:01:56;;;;;;;18.77;4.80;;;;;;;14.90;100.00;102146.97;7380695;19;20014;-69
2022/05/27 00:04:26;;;;;;;15.15;5.22;;;;;;;14.78;100.00;102145.88;7379233;19;20535;-70
2022/05/27 00:06:56;;;;;;;18.38;5.07;;;;;;;14.74;100.00;102155.50;7377916;19;20340;-70
2022/05/27 00:09:26;;;;;;;19.55;5.40;;;;;;;14.65;100.00;102150.94;7377255;19;20047;-71
2022/05/27 00:11:59;;;;;;;14.07;4.40;;;;;;;14.49;100.00;102162.13;7377699;19;20014;-71
2022/05/27 00:14:29;;;;;;;15.68;4.97;;;;;;;14.20;100.00;102168.56;7374028;19;20742;-71
2022/05/27 00:16:58;;;;;;;12.10;4.10;;;;;;;13.99;100.00;102162.00;7379015;19;20014;-71
2022/05/27 00:19:29;;;;;;;16.13;4.47;;;;;;;13.85;100.00;102168.72;7378226;19;20015;-72
2022/05/27 00:21:59;;;;;;;11.95;3.70;;;;;;;13.70;100.00;102168.41;7377891;19;20429;-72
2022/05/27 00:24:29;;;;;;;14.45;3.50;;;;;;;13.67;100.00;102165.69;7375187;19;20471;-70
2022/05/27 00:27:01;;;;;;;12.00;3.65;;;;;;;13.60;100.00;102162.03;7373672;19;20039;-70
2022/05/27 00:29:31;;;;;;;13.82;3.67;;;;;;;13.50;100.00;102165.38;7373533;19;20011;-70
2022/05/27 00:32:21;;;;;;;9.52;3.15;;;;;;;13.52;100.00;102163.63;7375815;19;20104;-70
2022/05/27 00:34:51;;;;;;;7.95;3.97;;;;;;;13.43;100.00;102165.19;7376961;19;20525;-71
2022/05/27 00:37:21;;;;;;;9.25;3.95;;;;;;;13.46;100.00;102152.09;7376022;19;20046;-70
2022/05/27 00:39:51;;;;;;;11.02;4.22;;;;;;;13.54;100.00;102151.38;7379001;19;20031;-69
2022/05/27 00:42:24;;;;;;;14.40;4.78;;;;;;;13.55;100.00;102146.97;7378832;19;20318;-70
2022/05/27 00:44:54;;;;;;;15.10;5.10;;;;;;;13.57;100.00;102147.91;7380441;19;20014;-71
2022/05/27 00:47:33;;;;;;;17.83;5.40;;;;;;;13.60;100.00;102147.97;7379962;19;20010;-71
2022/05/27 00:50:11;;;;;;;16.20;6.10;;;;;;;13.63;100.00;102150.69;7383604;19;20044;-70
2022/05/27 00:52:43;;;;;;;21.30;6.30;;;;;;;13.68;100.00;102146.38;7381299;19;20021;-72
2022/05/27 00:55:18;;;;;;;14.90;6.55;;;;;;;13.76;100.00;102134.25;7383435;19;20051;-72
2022/05/27 00:57:57;;;;;;;22.55;7.20;;;;;;;13.69;100.00;102140.25;7383295;19;20015;-72
2022/05/27 01:00:28;;;;;;;19.85;5.78;;;;;;;13.74;100.00;102139.50;7384024;19;20015;-72
2022/05/27 01:02:58;;;;;;;22.00;7.82;;;;;;;13.82;100.00;102131.75;7383400;19;20010;-72
2022/05/27 01:05:29;;;;;;;26.85;7.75;;;;;;;13.78;100.00;102134.28;7382058;19;20040;-72
2022/05/27 01:08:04;;;;;;;17.33;6.40;;;;;;;13.78;100.00;102132.53;7381312;19;20119;-72
2022/05/27 01:10:42;;;;;;;26.48;6.90;;;;;;;13.83;100.00;102138.81;7383494;19;20006;-72
2022/05/27 01:13:31;;;;;;;21.55;6.97;;;;;;;13.81;100.00;102144.91;7383714;19;20384;-73
2022/05/27 01:16:16;;;;;;;23.38;6.00;;;;;;;13.78;100.00;102134.28;7381079;19;20018;-72
2022/05/27 01:22:01;;;;;;;17.33;5.93;;;;;;;13.81;100.00;102142.28;7383147;19;20022;-72
2022/05/27 01:25:02;;;;;;;19.65;6.13;;;;;;;13.74;100.00;102128.06;7380643;19;20097;-72
2022/05/27 01:27:59;;;;;;;18.95;5.43;;;;;;;13.77;100.00;102130.75;7382415;19;20019;-72
2022/05/27 01:30:36;;;;;;;15.18;5.03;;;;;;;13.85;100.00;102136.19;7380200;19;20040;-72
2022/05/27 01:33:21;;;;;;;18.85;5.50;;;;;;;13.83;100.00;102133.53;7378792;19;20032;-73
2022/05/27 01:36:01;;;;;;;21.80;6.28;;;;;;;13.85;100.00;102128.28;7381491;19;20006;-72
2022/05/27 01:38:41;;;;;;;16.90;4.78;;;;;;;13.86;100.00;102135.34;7379791;19;20025;-72
2022/05/27 01:41:16;;;;;;;17.98;5.22;;;;;;;13.86;100.00;102137.97;7380457;19;20538;-72
2022/05/27 01:43:53;;;;;;;19.83;5.85;;;;;;;13.88;100.00;102138.91;7379093;19;20014;-74
2022/05/27 01:46:32;;;;;;;23.80;5.57;;;;;;;13.84;100.00;102132.66;7383220;19;20014;-73
2022/05/27 01:49:11;;;;;;;19.02;4.82;;;;;;;13.86;100.00;102128.31;7379350;19;20082;-73
2022/05/27 01:51:46;;;;;;;19.52;4.90;;;;;;;13.82;100.00;102121.19;7377884;19;20232;-73
2022/05/27 01:54:21;;;;;;;17.45;4.82;;;;;;;13.85;100.00;102121.25;7376686;19;20025;-73
2022/05/27 01:56:55;;;;;;;22.20;6.55;;;;;;;13.84;100.00;102127.41;7376511;19;20006;-73
2022/05/27 01:59:31;;;;;;;21.75;5.15;;;;;;;13.81;100.00;102129.97;7375678;19;20007;-73
2022/05/27 02:02:10;;;;;;;20.58;5.20;;;;;;;13.79;100.00;102136.97;7383721;19;20017;-72
2022/05/27 02:04:44;;;;;;;17.92;5.40;;;;;;;13.78;100.00;102131.66;7379448;19;20018;-72
2022/05/27 02:07:17;;;;;;;21.80;4.97;;;;;;;13.69;100.00;102129.72;7380829;19;20043;-72
2022/05/27 02:09:53;;;;;;;16.30;4.65;;;;;;;13.62;100.00;102117.25;7376766;19;20021;-73
2022/05/27 02:12:30;;;;;;;21.30;5.90;;;;;;;13.56;100.00;102118.03;7382086;19;20007;-72
2022/05/27 02:15:04;;;;;;;13.45;5.03;;;;;;;13.57;100.00;102119.81;7379507;19;20476;-72
2022/05/27 02:17:42;;;;;;;19.05;5.57;;;;;;;13.50;100.00;102117.94;7377032;19;20040;-72
2022/05/27 02:20:19;;;;;;;17.33;4.78;;;;;;;13.53;100.00;102127.59;7378790;19;20049;-72
2022/05/27 02:22:54;;;;;;;17.60;4.35;;;;;;;13.51;100.00;102126.72;7377974;19;20015;-72
2022/05/27 02:25:28;;;;;;;12.85;4.25;;;;;;;13.50;100.00;102130.22;7376380;19;20647;-73
2022/05/27 02:28:04;;;;;;;17.27;4.47;;;;;;;13.45;100.00;102130.13;7378943;19;20014;-73
2022/05/27 02:30:38;;;;;;;17.15;4.75;;;;;;;13.46;100.00;102128.38;7374189;19;20013;-71
2022/05/27 02:36:01;;;;;;;16.75;5.03;;;;;;;13.39;100.00;102120.31;7380445;19;20011;-71
2022/05/27 02:38:31;;;;;;;17.30;5.10;;;;;;;13.37;100.00;102111.50;7381488;19;20090;-71
2022/05/27 02:41:14;;;;;;;16.02;4.60;;;;;;;13.32;100.00;102112.25;7381413;19;20026;-71
2022/05/27 02:43:57;;;;;;;16.00;4.88;;;;;;;13.29;100.00;102122.72;7380563;19;20514;-71
2022/05/27 02:46:33;;;;;;;15.30;5.40;;;;;;;13.28;100.00;102119.19;7379179;19;20022;-72
2022/05/27 02:49:14;;;;;;;15.18;4.65;;;;;;;13.23;100.00;102115.56;7378138;19;20359;-73
2022/05/27 02:51:52;;;;;;;14.50;4.38;;;;;;;13.22;100.00;102124.31;7380392;19;20049;-73
2022/05/27 02:54:30;;;;;;;12.77;4.55;;;;;;;13.23;100.00;102120.84;7379664;19;20014;-73
2022/05/27 02:57:05;;;;;;;17.27;4.57;;;;;;;13.28;100.00;102127.09;7379076;19;20034;-73
2022/05/27 02:59:38;;;;;;;11.63;5.00;;;;;;;13.26;100.00;102131.44;7379315;19;20056;-72
2022/05/27 03:02:12;;;;;;;12.55;4.03;;;;;;;13.26;100.00;102128.81;7379904;19;20014;-72
2022/05/27 03:04:49;;;;;;;10.77;5.03;;;;;;;13.23;100.00;102127.84;7377958;19;20019;-72
2022/05/27 03:07:33;;;;;;;18.00;4.45;;;;;;;13.26;100.00;102123.53;7378200;19;20044;-73
2022/05/27 03:10:08;;;;;;;;;;;;;;;13.20;100.00;102122.50;7374333;19;20022;-73
2022/05/27 03:12:46;;;;;;;19.05;5.20;;;;;;;13.16;100.00;102126.81;7375718;19;19918;-73
2022/05/27 03:15:35;;;;;;;16.92;4.80;;;;;;;13.14;100.00;102123.22;7373190;19;20014;-74
2022/05/27 03:18:19;;;;;;;11.98;3.42;;;;;;;13.16;100.00;102118.00;7374466;19;20014;-73
2022/05/27 03:21:04;;;;;;;12.80;4.43;;;;;;;13.16;100.00;102123.25;7374673;19;20022;-73
2022/05/27 03:23:49;;;;;;;18.20;4.88;;;;;;;13.17;100.00;102130.34;7376165;19;20014;-73
2022/05/27 03:26:28;;;;;;;13.90;4.45;;;;;;;13.14;100.00;102130.25;7375521;19;20060;-73
2022/05/27 03:29:09;;;;;;;13.15;5.03;;;;;;;13.18;100.00;102132.13;7375138;19;20093;-73
2022/05/27 03:31:44;;;;;;;14.88;4.80;;;;;;;13.21;100.00;102134.81;7377216;19;20044;-73
2022/05/27 03:34:21;;;;;;;14.15;4.57;;;;;;;13.25;100.00;102121.75;7378698;19;20015;-73
2022/05/27 03:36:59;;;;;;;14.77;4.53;;;;;;;13.26;100.00;102128.81;7381967;19;20337;-73
2022/05/27 03:39:34;;;;;;;15.23;4.55;;;;;;;13.23;100.00;102139.28;7374724;19;20006;-73
2022/05/27 03:42:08;;;;;;;13.25;4.35;;;;;;;13.24;100.00;102129.63;7375546;19;20022;-73
2022/05/27 03:44:38;;;;;;;9.27;3.58;;;;;;;13.22;100.00;102134.88;7378981;19;20510;-73
2022/05/27 03:47:08;;;;;;;11.55;4.30;;;;;;;13.22;100.00;102145.41;7377553;19;20559;-73
2022/05/27 03:49:38;;;;;;;7.80;3.90;;;;;;;13.24;100.00;102142.81;7377504;19;20019;-73
2022/05/27 03:52:16;;;;;;;13.48;4.88;;;;;;;13.25;100.00;102153.38;7381670;19;20018;-73
2022/05/27 03:54:47;;;;;;;13.82;3.53;;;;;;;13.22;100.00;102153.31;7374153;19;20838;-75
2022/05/27 03:57:17;;;;;;;12.60;3.50;;;;;;;13.24;100.00;102151.59;7374321;19;20018;-75
2022/05/27 03:59:47;;;;;;;12.90;4.38;;;;;;;13.24;100.00;102148.06;7375085;19;20015;-73
2022/05/27 04:02:17;;;;;;;10.88;3.70;;;;;;;13.25;100.00;102148.09;7377515;19;20039;-74
2022/05/27 04:04:47;;;;;;;12.30;3.92;;;;;;;13.23;100.00;102154.19;7377397;19;20074;-74
2022/05/27 04:07:19;;;;;;;12.07;3.88;;;;;;;13.23;100.00;102148.94;7376820;19;20015;-75
2022/05/27 04:09:50;;;;;;;11.27;3.55;;;;;;;13.22;100.00;102155.94;7378236;19;20840;-74
2022/05/27 04:12:22;;;;;;;11.07;3.13;;;;;;;13.22;100.00;102148.03;7375947;19;20018;-74
2022/05/27 04:14:53;;;;;;;9.15;3.25;;;;;;;13.24;100.00;102155.97;7378135;19;20101;-74
2022/05/27 04:17:35;;;;;;;8.73;3.20;;;;;;;13.20;100.00;102144.47;7374462;19;20015;-74
2022/05/27 04:20:08;;;;;;;7.28;2.97;;;;;;;13.17;100.00;102149.66;7374372;19;20018;-74
2022/05/27 04:22:41;;;;;;;;;;;;;;;13.16;100.00;102158.44;7381680;19;20014;-74
2022/05/27 04:25:16;;;;;;;10.52;3.45;;;;;;;13.19;100.00;102157.63;7386160;19;20332;-75
2022/05/27 04:27:46;;;;;;;9.05;3.17;;;;;;;13.20;100.00;102146.22;7379371;19;20780;-74
2022/05/27 04:30:17;;;;;;;9.93;3.42;;;;;;;13.15;100.00;102153.97;7384254;19;20022;-74
2022/05/27 04:32:47;;;;;;;11.02;3.00;;;;;;;13.16;100.00;102155.78;7380335;19;20018;-75
2022/05/27 04:35:17;;;;;;;12.50;3.65;;;;;;;13.17;100.00;102154.94;7383294;19;20021;-75
2022/05/27 04:37:49;;;;;;;10.55;3.83;;;;;;;13.19;100.00;102158.50;7382021;19;20015;-74
2022/05/27 04:40:21;;;;;;;11.38;3.67;;;;;;;13.25;100.00;102145.47;7381762;19;20038;-74
2022/05/27 04:42:50;;;;;;;9.55;3.70;;;;;;;13.31;100.00;102156.16;7381876;19;20053;-73
2022/05/27 04:45:21;;;;;;;10.63;4.35;;;;;;;13.34;100.00;102158.84;7385713;19;20015;-73
2022/05/27 04:47:52;;;;;;;11.10;3.42;;;;;;;13.43;100.00;102155.53;7385787;19;20035;-73
2022/05/27 04:50:22;;;;;;;8.38;4.30;;;;;;;13.44;100.00;102156.44;7383151;19;20014;-73
2022/05/27 04:52:55;;;;;;;13.05;4.07;;;;;;;13.40;100.00;102164.28;7379843;19;20043;-73
2022/05/27 04:55:25;;;;;;;11.98;4.55;;;;;;;13.42;100.00;102169.56;7387206;19;20364;-73
2022/05/27 04:57:59;;;;;;;12.60;4.38;;;;;;;13.47;100.00;102172.31;7382786;19;20032;-73
2022/05/27 05:00:35;;;;;;;7.18;3.70;;;;;;;13.47;100.00;102173.19;7382187;19;20014;-74
2022/05/27 05:03:05;;;;;;;11.60;4.07;;;;;;;13.74;100.00;102178.16;7384294;19;20065;-72
2022/05/27 05:05:36;;;;;;;11.23;5.03;;;;;;;13.88;100.00;102175.81;7381500;19;20002;-73
2022/05/27 05:08:17;;;;;;;9.68;3.38;;;;;;;13.89;100.00;102181.13;7382976;19;20006;-72
2022/05/27 05:10:47;;;;;;;12.00;4.22;;;;;;;13.92;100.00;102175.91;7381568;19;20035;-73
2022/05/27 05:13:17;;;;;;;8.43;3.38;;;;;;;13.96;100.00;102180.41;7379987;19;20027;-73
2022/05/27 05:15:47;;;;;;;11.35;3.92;;;;;;;13.96;100.00;102179.50;7380740;19;20018;-73
2022/05/27 05:18:17;;;;;;;12.63;3.53;;;;;;;13.84;100.00;102182.78;7379282;19;20015;-71
2022/05/27 05:20:47;;;;;;;10.55;3.72;;;;;;;13.84;100.00;102192.44;7379214;19;20018;-71
2022/05/27 05:23:19;;;;;;;8.80;3.47;;;;;;;13.86;100.00;102190.72;7381866;19;20022;-72
2022/05/27 05:25:49;;;;;;;12.20;3.53;;;;;;;13.90;100.00;102193.47;7381175;19;20803;-71
2022/05/27 05:28:19;;;;;;;8.98;3.67;;;;;;;13.84;100.00;102193.31;7381974;19;21034;-71
2022/05/27 05:30:49;;;;;;;9.55;3.65;;;;;;;13.80;100.00;102198.50;7381120;19;20147;-71
2022/05/27 05:33:19;;;;;;;6.25;2.78;;;;;;;13.85;100.00;102195.09;7376949;19;20014;-71
2022/05/27 05:35:49;;;;;;;10.73;3.53;;;;;;;13.90;100.00;102198.72;7382336;19;20026;-71
2022/05/27 05:38:22;;;;;;;7.88;3.13;;;;;;;14.07;100.00;102207.88;7377365;19;20015;-70
2022/05/27 05:40:51;;;;;;;12.67;3.73;;;;;;;14.10;100.00;102211.44;7383460;19;20047;-70
2022/05/27 05:43:21;;;;;;;7.75;3.25;;;;;;;14.17;99.98;102208.06;7380375;19;20094;-70
2022/05/27 05:45:51;;;;;;;7.00;3.35;;;;;;;14.13;98.81;102211.50;7380879;19;20530;-70
2022/05/27 05:48:23;;;;;;;7.90;3.47;;;;;;;14.07;98.18;102213.16;7380688;19;20018;-70
2022/05/27 05:50:53;;;;;;;12.88;4.60;;;;;;;14.11;97.31;102218.50;7380221;19;20296;-71
2022/05/27 05:53:26;;;;;;;7.65;3.22;;;;;;;14.41;96.88;102211.19;7378987;19;20010;-70
2022/05/27 05:55:55;;;;;;;9.10;3.53;;;;;;;14.57;97.18;102209.75;7379318;19;20007;-70
2022/05/27 05:58:25;;;;;;;14.02;3.30;;;;;;;14.47;93.28;102206.06;7380934;19;20006;-70
2022/05/27 06:00:55;;;;;;;8.43;3.38;;;;;;;14.26;93.20;102216.19;7383002;19;20046;-71
2022/05/27 06:03:25;;;;;;;6.95;3.28;;;;;;;14.34;93.92;102223.38;7379923;19;20026;-70
2022/05/27 06:05:56;;;;;;;7.85;2.92;;;;;;;14.35;94.79;102225.16;7380462;19;20007;-71
2022/05/27 06:08:29;;;;;;;8.10;2.75;;;;;;;14.29;94.19;102221.50;7380869;19;20017;-71
2022/05/27 06:10:58;;;;;;;11.63;4.50;;;;;;;14.41;92.53;102234.97;7383625;19;20017;-71
2022/05/27 06:13:29;;;;;;;9.45;2.85;;;;;;;14.19;90.33;102230.09;7381634;19;20561;-71
2022/05/27 06:15:58;;;;;;;12.85;3.55;;;;;;;14.10;92.32;102222.00;7381979;19;20010;-71
2022/05/27 06:18:28;;;;;;;12.00;3.40;;;;;;;14.12;93.29;102233.47;7378653;19;20013;-71
2022/05/27 06:20:58;;;;;;;9.90;3.08;;;;;;;14.05;95.84;102228.06;7381268;19;20086;-71
2022/05/27 06:23:31;;;;;;;9.07;3.20;;;;;;;14.10;95.76;102235.19;7380328;19;20014;-71
2022/05/27 06:26:03;;;;;;;11.55;3.55;;;;;;;14.14;96.05;102232.66;7383256;19;20020;-70
2022/05/27 06:36:43;;;;;;;7.50;3.35;;;;;;;14.80;85.42;102247.13;7380826;19;20018;-71
2022/05/27 06:39:16;;;;;;;11.10;3.42;;;;;;;14.71;81.37;102246.09;7379684;19;20083;-72
2022/05/27 06:41:46;;;;;;;10.80;3.67;;;;;;;14.54;75.57;102249.31;7379345;19;20018;-71
2022/05/27 06:44:16;;;;;;;8.82;3.50;;;;;;;14.64;75.11;102259.16;7375147;19;20055;-70
2022/05/27 06:46:46;;;;;;;9.27;2.88;;;;;;;14.59;72.04;102253.78;7379671;19;20078;-71
2022/05/27 06:49:17;;;;;;;12.13;3.65;;;;;;;14.45;71.21;102259.69;7377421;19;20015;-74
2022/05/27 06:51:48;;;;;;;13.05;3.40;;;;;;;14.84;68.48;102259.53;7372367;19;20014;-74
2022/05/27 06:54:22;;;;;;;14.15;3.92;;;;;;;14.83;66.70;102260.41;7373217;19;20086;-75
2022/05/27 06:56:53;;;;;;;10.43;2.80;;;;;;;15.10;68.44;102267.94;7375460;19;20015;-73
2022/05/27 06:59:25;;;;;;;8.90;2.45;;;;;;;15.05;67.95;102273.13;7377280;19;20014;-74
2022/05/27 07:01:56;;;;;;;10.68;2.92;;;;;;;15.11;67.50;102267.06;7375773;19;20697;-74
2022/05/27 07:04:26;;;;;;;11.32;3.63;;;;;;;15.34;67.31;102271.88;7375436;19;20082;-73
2022/05/27 07:06:57;;;;;;;12.20;3.50;;;;;;;15.12;68.61;102269.75;7379954;19;20554;-73
2022/05/27 07:09:30;;;;;;;8.75;2.90;;;;;;;14.81;63.51;102276.22;7377257;19;20006;-74
2022/05/27 07:11:59;;;;;;;9.75;3.00;;;;;;;14.90;63.89;102267.56;7378712;19;20010;-73
2022/05/27 07:14:29;;;;;;;10.43;2.92;;;;;;;14.85;61.20;102278.06;7375819;19;20038;-74
2022/05/27 07:16:59;;;;;;;9.35;2.88;;;;;;;15.35;61.76;102272.78;7377097;19;20015;-74
2022/05/27 07:19:38;;;;;;;14.25;3.38;;;;;;;15.33;59.88;102280.69;7378888;19;20017;-74
2022/05/27 07:22:09;;;;;;;13.48;3.50;;;;;;;15.54;59.82;102284.53;7375995;19;20017;-73
2022/05/27 07:24:42;;;;;;;9.95;3.53;;;;;;;15.07;60.29;102281.09;7377321;19;20022;-74
2022/05/27 07:27:12;;;;;;;14.02;3.75;;;;;;;15.31;60.76;102282.41;7377368;19;20018;-74
2022/05/27 07:29:42;;;;;;;8.68;3.08;;;;;;;15.20;61.98;102277.78;7376679;19;20010;-74
2022/05/27 07:32:12;;;;;;;17.27;3.83;;;;;;;15.13;62.34;102289.13;7375866;19;20499;-74
2022/05/27 07:34:42;;;;;;;10.90;3.40;;;;;;;15.17;62.90;102289.22;7378097;19;20022;-74
2022/05/27 07:37:12;;;;;;;13.80;3.42;;;;;;;15.33;63.28;102285.97;7374598;19;20082;-73
2022/05/27 07:39:44;;;;;;;9.70;3.20;;;;;;;15.46;63.08;102287.06;7379547;19;20015;-72
2022/05/27 07:42:14;;;;;;;11.43;2.80;;;;;;;15.35;65.39;102300.09;7380446;19;20018;-74
2022/05/27 07:44:44;;;;;;;10.25;2.92;;;;;;;15.66;65.45;102293.56;7380533;19;20795;-74
2022/05/27 07:47:17;;;;;;;9.30;2.95;;;;;;;15.64;65.80;102302.31;7376299;19;20507;-73
2022/05/27 07:49:48;;;;;;;8.15;2.78;;;;;;;15.36;64.89;102301.88;7377553;19;20018;-73
2022/05/27 07:52:18;;;;;;;11.65;3.25;;;;;;;15.53;64.95;102293.34;7375921;19;20021;-73
2022/05/27 07:54:51;;;;;;;12.57;3.63;;;;;;;15.51;62.52;102310.94;7378140;19;20611;-73
2022/05/27 07:57:28;;;;;;;13.52;3.53;;;;;;;15.80;60.58;102314.03;7378598;19;20081;-73
2022/05/27 08:00:04;;;;;;;7.55;2.80;;;;;;;15.70;55.46;102315.66;7374538;19;20015;-73
2022/05/27 08:02:34;;;;;;;12.63;2.78;;;;;;;16.01;57.37;102314.34;7375521;19;20129;-73
2022/05/27 08:05:04;;;;;;;11.85;3.60;;;;;;;15.65;58.87;102315.56;7374673;19;20373;-74
2022/05/27 08:07:34;;;;;;;9.27;3.00;;;;;;;15.96;60.14;102316.03;7377177;19;20021;-73
2022/05/27 08:10:09;;;;;;;9.38;3.35;;;;;;;15.88;60.05;102313.28;7374199;19;20136;-73
2022/05/27 08:12:40;;;;;;;12.55;3.58;;;;;;;15.63;62.19;102316.41;7376405;19;20022;-73
2022/05/27 08:15:13;;;;;;;;;;;;;;;15.37;62.20;102330.09;7374047;19;20042;-73
2022/05/27 08:17:43;;;;;;;12.82;3.28;;;;;;;15.95;61.00;102325.75;7376902;19;19954;-74
2022/05/27 08:20:17;;;;;;;14.75;3.05;;;;;;;15.89;60.61;102323.00;7376066;19;20472;-73
2022/05/27 08:22:53;;;;;;;12.25;3.90;;;;;;;15.99;59.63;102318.72;7374305;19;20014;-74
2022/05/27 08:25:27;;;;;;;10.48;2.95;;;;;;;15.97;56.28;102325.75;7375881;19;20010;-74
2022/05/27 08:27:57;;;;;;;9.73;2.78;;;;;;;16.81;57.36;102308.31;7374096;19;20480;-74
2022/05/27 08:30:33;;;;;;;10.52;3.47;;;;;;;16.40;54.06;102307.81;7374468;19;20022;-74
2022/05/27 08:33:04;;;;;;;7.40;3.17;;;;;;;16.40;55.15;102316.66;7373812;19;20011;-73
2022/05/27 08:38:21;;;;;;;9.15;3.75;;;;;;;16.30;55.19;102328.88;7370783;19;20021;-74
2022/05/27 08:41:17;;;;;;;13.27;4.00;;;;;;;16.82;52.95;102318.94;7371323;19;20531;-73
2022/05/27 08:44:08;;;;;;;10.40;2.75;;;;;;;16.51;54.23;102330.91;7372471;19;20350;-74
2022/05/27 08:46:48;;;;;;;11.30;3.58;;;;;;;16.40;54.95;102329.91;7372589;19;20018;-74
2022/05/27 08:49:22;;;;;;;12.82;3.72;;;;;;;16.47;56.13;102341.44;7369821;19;20014;-76
2022/05/27 08:52:00;;;;;;;10.15;3.28;;;;;;;17.03;56.12;102339.47;7371168;19;20025;-74
2022/05/27 08:54:35;;;;;;;12.88;4.15;;;;;;;17.27;55.82;102345.03;7372815;19;20043;-73
2022/05/27 08:59:56;;;;;;;10.75;3.05;;;;;;;17.11;51.97;102352.81;7376629;19;20125;-74
2022/05/27 09:02:34;;;;;;;11.68;3.28;;;;;;;17.57;52.24;102344.41;7374341;19;20034;-75
2022/05/27 09:05:15;;;;;;;11.07;3.30;;;;;;;17.11;51.97;102347.50;7374421;19;20081;-74
2022/05/27 09:07:52;;;;;;;13.63;3.65;;;;;;;17.00;52.21;102365.94;7380057;19;20339;-73
2022/05/27 09:10:24;;;;;;;15.27;3.58;;;;;;;16.74;52.42;102356.81;7384686;19;20714;-74
2022/05/27 09:13:08;;;;;;;13.82;3.50;;;;;;;16.28;52.15;102372.09;7381877;19;20011;-74
2022/05/27 09:15:47;;;;;;;13.25;3.38;;;;;;;16.75;52.60;102355.94;7377627;19;20022;-75
2022/05/27 09:18:29;;;;;;;13.82;3.42;;;;;;;16.94;54.08;102344.66;7377113;19;20031;-72
2022/05/27 09:21:15;;;;;;;11.80;3.13;;;;;;;17.12;54.06;102363.44;7380263;19;20006;-72
2022/05/27 09:24:00;;;;;;;10.98;3.47;;;;;;;16.99;52.92;102383.59;7377138;19;20035;-72
2022/05/27 09:26:38;;;;;;;17.17;4.35;;;;;;;16.31;53.61;102367.72;7377935;19;20011;-72
2022/05/27 09:29:24;;;;;;;11.60;3.40;;;;;;;16.68;54.45;102358.50;7377109;19;20015;-71
2022/05/27 09:31:58;;;;;;;13.75;3.33;;;;;;;16.94;53.59;102360.56;7380690;19;20014;-72
2022/05/27 09:34:33;;;;;;;11.52;3.08;;;;;;;16.61;53.02;102367.25;7374991;19;20010;-71
2022/05/27 09:37:08;;;;;;;12.77;4.35;;;;;;;16.89;53.46;102364.94;7379724;19;20014;-72
2022/05/27 09:39:38;;;;;;;13.43;3.58;;;;;;;16.35;53.26;102376.59;7378599;19;20711;-72
2022/05/27 09:42:16;;;;;;;12.27;3.95;;;;;;;15.98;54.82;102368.13;7377223;19;20014;-72
2022/05/27 09:44:53;;;;;;;13.80;3.80;;;;;;;16.93;53.63;102366.75;7375865;19;20108;-72
2022/05/27 09:47:25;;;;;;;11.30;3.33;;;;;;;17.47;54.31;102363.78;7373938;19;20042;-71
2022/05/27 09:50:01;;;;;;;13.15;3.58;;;;;;;18.00;53.41;102365.97;7377553;19;20113;-72
2022/05/27 09:52:36;;;;;;;12.07;3.17;;;;;;;16.63;53.80;102359.31;7375847;19;20010;-72
2022/05/27 09:55:20;;;;;;;11.82;3.78;;;;;;;16.79;55.03;102365.69;7371305;19;20021;-71
2022/05/27 09:57:58;;;;;;;;;;;;;;;16.21;57.41;102386.09;7379101;19;20483;-71
2022/05/27 10:00:54;;;;;;;12.13;3.10;;;;;;;15.92;59.50;102398.88;7381236;19;19927;-72
2022/05/27 10:03:36;;;;;;;12.10;4.15;;;;;;;16.20;59.48;102390.50;7374912;19;20003;-73
2022/05/27 10:06:10;;;;;;;13.85;3.75;;;;;;;16.01;58.38;102391.97;7380569;19;20471;-74
2022/05/27 10:08:43;;;;;;;;;;;;;;;16.09;57.65;102400.03;7379817;19;20675;-74
2022/05/27 10:11:26;;;;;;;14.57;3.38;;;;;;;15.82;57.31;102403.13;7377686;19;20165;-74
2022/05/27 10:14:17;;;;;;;16.52;3.75;;;;;;;15.81;57.10;102404.00;7376288;19;20014;-71
2022/05/27 10:17:10;;;;;;;14.77;4.82;;;;;;;15.98;57.11;102397.22;7375951;19;20021;-71
2022/05/27 10:19:47;;;;;;;15.40;4.05;;;;;;;16.05;57.57;102406.16;7374181;19;20010;-72
2022/05/27 10:22:26;;;;;;;12.70;3.40;;;;;;;16.39;55.95;102404.00;7378764;19;20019;-71
2022/05/27 10:25:03;;;;;;;11.35;3.15;;;;;;;16.18;56.84;102405.47;7379515;19;20599;-71
2022/05/27 10:27:36;;;;;;;9.75;3.13;;;;;;;16.04;54.89;102414.97;7376855;19;20014;-72
2022/05/27 10:30:10;;;;;;;13.00;2.80;;;;;;;15.72;55.15;102410.88;7378424;19;20014;-72
2022/05/27 10:32:46;;;;;;;14.13;3.00;;;;;;;16.31;55.00;102409.19;7377640;19;20053;-73
2022/05/27 10:35:35;;;;;;;12.13;3.60;;;;;;;16.15;54.60;102407.19;7375773;19;20053;-71
2022/05/27 10:38:21;;;;;;;21.17;4.25;;;;;;;16.38;54.27;102403.13;7377971;19;20015;-72
2022/05/27 10:41:02;;;;;;;14.68;3.70;;;;;;;15.79;55.36;102416.31;7377441;19;20014;-72
2022/05/27 10:43:45;;;;;;;10.32;3.10;;;;;;;16.47;52.96;102419.13;7376549;19;20058;-71
2022/05/27 10:46:19;;;;;;;14.13;3.60;;;;;;;16.05;52.49;102416.75;7376875;19;20018;-72
2022/05/27 10:49:27;;;;;;;12.90;3.20;;;;;;;16.52;52.15;102409.50;7377572;19;20022;-72
2022/05/27 10:52:15;;;;;;;16.10;3.85;;;;;;;16.52;51.30;102414.81;7376666;19;20015;-72
2022/05/27 10:54:59;;;;;;;12.13;3.20;;;;;;;16.64;49.86;102414.97;7374316;19;20023;-73
2022/05/27 11:03:28;;;;;;;10.45;3.10;;;;;;;16.86;48.78;102410.84;7374625;19;20021;-73
2022/05/27 11:06:20;;;;;;;12.23;2.75;;;;;;;16.77;46.85;102409.81;7373461;19;20015;-73
2022/05/27 11:09:12;;;;;;;12.40;2.58;;;;;;;17.30;47.42;102421.06;7376834;19;20015;-73
2022/05/27 11:11:49;;;;;;;14.93;2.55;;;;;;;17.08;46.63;102416.38;7377164;19;20018;-73
2022/05/27 11:17:27;;;;;;;5.57;1.90;;;;;;;16.77;45.95;102420.44;7378956;19;20015;-74
2022/05/27 11:20:41;;;;;;;7.20;2.22;;;;;;;17.46;46.54;102430.97;7376228;19;20011;-74
2022/05/27 11:23:37;;;;;;;10.73;2.70;;;;;;;17.73;45.38;102430.34;7374264;19;20006;-73
2022/05/27 11:26:13;;;;;;;9.32;3.00;;;;;;;17.04;44.73;102444.63;7377755;19;20043;-73
2022/05/27 11:29:05;;;;;;;8.10;2.35;;;;;;;17.62;44.73;102437.31;7378297;19;20032;-74
2022/05/27 11:31:48;;;;;;;8.57;2.20;;;;;;;17.76;42.04;102440.09;7375959;19;20039;-73
2022/05/27 11:34:27;;;;;;;11.43;2.40;;;;;;;17.67;44.81;102446.22;7374980;19;20090;-74
2022/05/27 11:37:20;;;;;;;13.05;3.58;;;;;;;17.73;44.54;102435.66;7378140;19;20015;-74
2022/05/27 11:40:06;;;;;;;5.68;2.20;;;;;;;18.11;43.53;102437.72;7376631;19;20017;-73
2022/05/27 11:43:07;;;;;;;11.05;3.00;;;;;;;17.74;45.01;102440.06;7377715;19;20377;-73
2022/05/27 11:45:38;;;;;;;8.27;2.08;;;;;;;16.91;45.85;102451.53;7379282;19;20022;-73
2022/05/27 11:48:09;;;;;;;7.70;2.17;;;;;;;16.82;46.20;102455.81;7375928;19;20014;-72
2022/05/27 11:50:57;;;;;;;9.57;2.88;;;;;;;17.27;45.85;102450.19;7375639;19;20018;-74
2022/05/27 11:53:40;;;;;;;7.40;2.05;;;;;;;18.19;44.92;102441.34;7374532;19;20021;-72
2022/05/27 11:56:19;;;;;;;9.75;2.40;;;;;;;17.46;44.91;102453.94;7375253;19;20018;-76
2022/05/27 11:58:59;;;;;;;12.68;3.05;;;;;;;17.57;45.88;102439.03;7374806;19;20022;-74
2022/05/27 12:01:38;;;;;;;13.80;3.13;;;;;;;17.13;46.40;102442.09;7376162;19;20007;-74
2022/05/27 12:04:14;;;;;;;6.60;2.05;;;;;;;17.06;46.83;102448.19;7374417;19;20021;-75
2022/05/27 12:06:50;;;;;;;11.07;2.38;;;;;;;17.61;47.09;102454.09;7372579;19;20022;-75
2022/05/27 12:09:29;;;;;;;11.77;2.58;;;;;;;17.03;45.39;102452.56;7372226;19;20021;-76
2022/05/27 12:12:09;;;;;;;11.55;2.55;;;;;;;16.98;47.34;102448.09;7374057;19;20018;-74
2022/05/27 12:14:43;;;;;;;12.15;2.60;;;;;;;16.73;47.59;102468.94;7373459;19;20019;-74
2022/05/27 12:17:18;;;;;;;11.63;2.78;;;;;;;17.27;46.99;102461.69;7373397;19;20372;-74
2022/05/27 12:19:58;;;;;;;8.75;2.30;;;;;;;17.20;46.21;102453.66;7372785;19;20113;-75
2022/05/27 12:22:32;;;;;;;12.52;2.33;;;;;;;17.13;45.25;102463.28;7373738;19;20082;-74
2022/05/27 12:25:07;;;;;;;7.45;2.30;;;;;;;16.95;45.61;102481.63;7371749;19;20036;-75